createdAt,value
2019-05-09T00:01:16.833Z,1.50
2019-05-09T00:03:47.012Z,1.37
2019-05-09T00:06:17.173Z,0.93
2019-05-09T00:08:47.349Z,1.10
2019-05-09T00:11:17.579Z,0.73
2019-05-09T00:13:47.751Z,0.60
2019-05-09T00:16:17.917Z,1.17
2019-05-09T00:18:48.099Z,1.13
2019-05-09T00:21:19.907Z,2.67
2019-05-09T00:23:50.068Z,1.33
2019-05-09T00:26:20.271Z,0.93
2019-05-09T00:28:53.373Z,2.00
2019-05-09T00:31:35.154Z,1.43
2019-05-09T00:34:08.258Z,1.30
2019-05-09T00:36:38.417Z,0.80
2019-05-09T00:39:08.852Z,0.77
2019-05-09T00:41:39.179Z,1.43
2019-05-09T00:44:13.922Z,1.80
2019-05-09T00:46:48.702Z,1.20
2019-05-09T00:49:20.514Z,1.47
2019-05-09T00:51:50.683Z,1.53
2019-05-09T00:54:20.858Z,0.80
2019-05-09T00:56:51.022Z,0.70
2019-05-09T00:59:21.189Z,0.70
2019-05-09T01:01:51.349Z,0.83
2019-05-09T01:04:23.959Z,0.77
2019-05-09T01:06:54.135Z,1.70
2019-05-09T01:09:24.383Z,0.40
2019-05-09T01:11:54.527Z,0.77
2019-05-09T01:14:24.699Z,0.83
2019-05-09T01:16:54.861Z,1.93
2019-05-09T01:19:25.057Z,0.57
2019-05-09T01:21:55.284Z,0.60
2019-05-09T01:24:25.465Z,0.50
2019-05-09T01:26:55.637Z,1.03
2019-05-09T01:29:25.895Z,1.30
2019-05-09T01:31:57.710Z,1.80
2019-05-09T01:34:29.513Z,0.53
2019-05-09T01:37:07.015Z,0.40
2019-05-09T01:39:37.409Z,0.70
2019-05-09T01:42:07.584Z,0.47
2019-05-09T01:44:37.759Z,0.47
2019-05-09T01:47:09.010Z,1.00
2019-05-09T01:49:39.170Z,0.40
2019-05-09T01:52:09.350Z,0.70
2019-05-09T01:54:43.460Z,1.00
2019-05-09T01:57:13.863Z,1.10
2019-05-09T01:59:44.463Z,1.13
2019-05-09T02:02:14.708Z,1.10
2019-05-09T02:04:45.081Z,0.50
2019-05-09T02:07:15.250Z,0.40
2019-05-09T02:09:45.414Z,0.50
2019-05-09T02:12:15.583Z,1.33
2019-05-09T02:14:50.072Z,0.50
2019-05-09T02:17:23.236Z,0.67
2019-05-09T02:19:53.535Z,0.97
2019-05-09T02:22:35.369Z,0.37
2019-05-09T02:25:10.533Z,0.30
2019-05-09T02:27:41.074Z,0.53
2019-05-09T02:30:14.982Z,1.83
2019-05-09T02:32:45.234Z,0.57
2019-05-09T02:35:15.610Z,0.90
2019-05-09T02:37:49.548Z,1.07
2019-05-09T02:40:18.757Z,0.50
2019-05-09T02:42:49.311Z,0.97
2019-05-09T02:45:19.996Z,0.70
2019-05-09T02:47:50.183Z,0.50
2019-05-09T02:50:20.345Z,0.53
2019-05-09T02:52:50.556Z,1.83
2019-05-09T02:55:20.698Z,0.60
2019-05-09T02:57:52.525Z,0.90
2019-05-09T03:00:28.874Z,0.90
2019-05-09T03:03:00.551Z,0.70
2019-05-09T03:05:30.714Z,0.60
2019-05-09T03:08:00.889Z,0.47
2019-05-09T03:10:31.053Z,0.77
2019-05-09T03:13:01.251Z,0.63
2019-05-09T03:15:32.179Z,0.50
2019-05-09T03:18:02.353Z,1.47
2019-05-09T03:20:50.495Z,1.20
2019-05-09T03:23:20.665Z,0.30
2019-05-09T03:25:50.837Z,0.40
2019-05-09T03:28:28.225Z,0.57
2019-05-09T03:31:09.731Z,1.07
2019-05-09T03:33:40.804Z,0.40
2019-05-09T03:36:11.266Z,0.20
2019-05-09T03:38:41.624Z,0.20
2019-05-09T03:41:12.711Z,0.50
2019-05-09T03:43:43.047Z,1.37
2019-05-09T03:46:15.027Z,1.30
2019-05-09T03:48:49.756Z,0.30
2019-05-09T03:51:19.920Z,0.80
2019-05-09T03:53:50.090Z,1.17
2019-05-09T03:56:22.974Z,1.43
2019-05-09T03:58:53.130Z,0.50
2019-05-09T04:01:23.297Z,0.57
2019-05-09T04:03:53.563Z,0.60
2019-05-09T04:06:23.725Z,0.90
2019-05-09T04:08:54.148Z,0.70
2019-05-09T04:11:24.438Z,0.40
2019-05-09T04:13:58.686Z,0.50
2019-05-09T04:16:28.856Z,0.43
2019-05-09T04:18:59.017Z,0.57
2019-05-09T04:21:29.190Z,0.93
2019-05-09T04:23:59.360Z,0.70
2019-05-09T04:26:48.298Z,0.57
2019-05-09T04:29:18.489Z,0.53
2019-05-09T04:31:48.744Z,0.77
2019-05-09T04:34:18.964Z,0.70
2019-05-09T04:36:49.128Z,0.40
2019-05-09T04:39:23.627Z,0.53
2019-05-09T04:41:55.146Z,0.43
2019-05-09T04:44:25.466Z,0.70
2019-05-09T04:47:00.053Z,0.60
2019-05-09T04:49:29.746Z,1.27
2019-05-09T04:51:59.428Z,0.53
2019-05-09T04:54:29.608Z,0.47
2019-05-09T04:56:59.777Z,0.50
2019-05-09T04:59:29.949Z,0.20
2019-05-09T05:02:13.791Z,0.40
2019-05-09T05:04:44.269Z,0.20
2019-05-09T05:07:14.469Z,0.60
2019-05-09T05:09:44.637Z,0.73
2019-05-09T05:12:14.878Z,1.23
2019-05-09T05:14:47.445Z,0.47
2019-05-09T05:17:18.278Z,0.40
2019-05-09T05:19:49.316Z,0.60
2019-05-09T05:22:21.131Z,0.77
2019-05-09T05:24:55.638Z,0.93
2019-05-09T05:27:27.848Z,1.00
2019-05-09T05:32:50.172Z,0.50
2019-05-09T05:35:21.976Z,0.40
2019-05-09T05:37:52.140Z,1.00
2019-05-09T05:40:22.325Z,0.43
2019-05-09T05:42:52.547Z,0.60
2019-05-09T05:45:23.787Z,1.47
2019-05-09T05:47:57.625Z,1.13
2019-05-09T05:50:28.216Z,0.30
2019-05-09T05:52:58.467Z,0.87
2019-05-09T05:55:28.652Z,0.50
2019-05-09T05:57:58.820Z,0.70
2019-05-09T06:00:28.997Z,0.30
2019-05-09T06:02:59.196Z,0.70
2019-05-09T06:05:29.373Z,0.33
2019-05-09T06:07:59.544Z,0.50
2019-05-09T06:10:29.726Z,1.30
2019-05-09T06:12:59.887Z,1.07
2019-05-09T06:15:30.125Z,0.97
2019-05-09T06:18:00.297Z,0.50
2019-05-09T06:20:30.485Z,3.43
2019-05-09T06:23:00.660Z,1.23
2019-05-09T06:25:31.034Z,0.60
2019-05-09T06:28:01.187Z,0.77
2019-05-09T06:30:31.912Z,1.77
2019-05-09T06:33:04.817Z,0.87
2019-05-09T06:35:34.231Z,1.73
2019-05-09T06:38:04.391Z,0.50
2019-05-09T06:40:34.963Z,0.27
2019-05-09T06:43:23.002Z,3.50
2019-05-09T06:46:11.252Z,1.30
2019-05-09T06:48:42.042Z,0.90
2019-05-09T06:51:12.228Z,0.97
2019-05-09T06:53:42.395Z,1.37
2019-05-09T06:56:12.639Z,0.83
2019-05-09T06:58:43.577Z,0.60
2019-05-09T07:01:21.078Z,1.53
2019-05-09T07:03:58.597Z,0.40
2019-05-09T07:06:33.104Z,2.77
2019-05-09T07:09:04.927Z,3.30
2019-05-09T07:11:35.112Z,2.33
2019-05-09T07:14:08.321Z,1.07
2019-05-09T07:16:38.230Z,1.07
2019-05-09T07:19:08.393Z,1.33
2019-05-09T07:21:57.971Z,3.20
2019-05-09T07:24:28.715Z,1.03
2019-05-09T07:26:58.983Z,2.70
2019-05-09T07:29:30.799Z,1.20
2019-05-09T07:32:02.626Z,1.90
2019-05-09T07:34:40.425Z,1.63
2019-05-09T07:37:10.625Z,2.93
2019-05-09T07:39:40.867Z,1.20
2019-05-09T07:42:11.035Z,0.90
2019-05-09T07:44:48.385Z,3.47
2019-05-09T07:47:13.163Z,1.20
2019-05-09T07:49:43.400Z,0.90
2019-05-09T07:52:13.605Z,1.63
2019-05-09T07:54:43.760Z,1.73
2019-05-09T07:57:14.930Z,2.53
2019-05-09T07:59:45.081Z,0.53
2019-05-09T08:02:17.054Z,0.80
2019-05-09T08:04:48.916Z,1.13
2019-05-09T08:07:19.031Z,1.23
2019-05-09T08:09:49.196Z,0.90
2019-05-09T08:12:19.367Z,2.73
2019-05-09T08:15:06.749Z,1.23
2019-05-09T08:17:21.410Z,2.37
2019-05-09T08:19:51.726Z,2.33
2019-05-09T08:22:26.057Z,0.80
2019-05-09T08:24:53.901Z,5.30
2019-05-09T08:27:24.075Z,1.57
2019-05-09T08:29:54.248Z,1.90
2019-05-09T08:32:24.421Z,2.00
2019-05-09T08:34:54.590Z,1.13
2019-05-09T08:37:24.763Z,2.10
2019-05-09T08:39:57.579Z,1.53
2019-05-09T08:42:29.216Z,2.57
2019-05-09T08:44:58.716Z,1.30
2019-05-09T08:47:28.914Z,1.50
2019-05-09T08:50:03.651Z,1.07
2019-05-09T08:52:33.833Z,4.30
2019-05-09T08:55:05.155Z,1.37
2019-05-09T08:57:37.401Z,0.73
2019-05-09T09:00:08.389Z,1.57
2019-05-09T09:02:38.828Z,3.47
2019-05-09T09:05:08.989Z,2.17
2019-05-09T09:07:39.160Z,2.23
2019-05-09T09:10:09.291Z,1.40
2019-05-09T09:12:39.458Z,3.03
2019-05-09T09:15:09.645Z,0.40
2019-05-09T09:17:39.770Z,0.60
2019-05-09T09:20:10.198Z,2.20
2019-05-09T09:22:40.410Z,0.63
2019-05-09T09:25:10.574Z,1.57
2019-05-09T09:27:40.862Z,2.90
2019-05-09T09:30:20.794Z,1.43
2019-05-09T09:32:43.128Z,0.53
2019-05-09T09:35:15.214Z,3.33
2019-05-09T09:37:49.528Z,1.90
2019-05-09T09:40:17.766Z,0.63
2019-05-09T09:42:49.206Z,4.03
2019-05-09T09:45:19.322Z,1.33
2019-05-09T09:47:49.618Z,4.17
2019-05-09T09:50:20.145Z,0.87
2019-05-09T09:52:50.355Z,0.97
2019-05-09T09:55:20.563Z,3.17
2019-05-09T09:57:51.071Z,1.53
2019-05-09T10:00:51.301Z,2.33
2019-05-09T10:03:21.526Z,2.17
2019-05-09T10:05:51.721Z,1.00
2019-05-09T10:08:21.817Z,0.53
2019-05-09T10:10:51.974Z,1.60
2019-05-09T10:13:22.091Z,2.40
2019-05-09T10:15:54.407Z,0.90
2019-05-09T10:18:32.311Z,1.27
2019-05-09T10:21:12.765Z,1.77
2019-05-09T10:23:42.893Z,0.63
2019-05-09T10:26:13.050Z,0.43
2019-05-09T10:28:45.365Z,0.80
2019-05-09T10:31:15.003Z,1.80
2019-05-09T10:33:45.132Z,3.00
2019-05-09T10:36:15.399Z,2.53
2019-05-09T10:38:47.676Z,0.30
2019-05-09T10:41:17.461Z,0.77
2019-05-09T10:44:01.382Z,1.70
2019-05-09T10:46:56.752Z,5.03
2019-05-09T10:49:20.473Z,4.70
2019-05-09T10:51:50.612Z,0.93
2019-05-09T10:54:20.806Z,0.90
2019-05-09T10:56:50.952Z,2.03
2019-05-09T10:59:22.061Z,2.50
2019-05-09T11:01:52.216Z,2.40
2019-05-09T11:04:22.422Z,1.83
2019-05-09T11:06:52.588Z,1.23
2019-05-09T11:09:23.021Z,2.13
2019-05-09T11:11:53.159Z,1.33
2019-05-09T11:14:35.999Z,2.40
2019-05-09T11:17:07.932Z,1.23
2019-05-09T11:19:28.782Z,1.30
2019-05-09T11:21:59.020Z,2.43
2019-05-09T11:24:41.736Z,3.20
2019-05-09T11:27:00.992Z,3.07
2019-05-09T11:29:32.207Z,5.23
2019-05-09T11:32:02.343Z,2.00
2019-05-09T11:34:32.471Z,0.60
2019-05-09T11:37:02.620Z,1.20
2019-05-09T11:39:41.378Z,6.00
2019-05-09T11:42:04.587Z,5.57
2019-05-09T11:44:34.731Z,3.77
2019-05-09T11:47:04.961Z,9.77
2019-05-09T11:49:35.082Z,0.70
2019-05-09T11:52:05.226Z,1.93
2019-05-09T11:54:35.382Z,4.67
2019-05-09T11:57:07.509Z,3.57
2019-05-09T11:59:37.924Z,3.30
2019-05-09T12:02:08.973Z,4.63
2019-05-09T12:04:39.217Z,4.53
2019-05-09T12:07:09.351Z,1.90
2019-05-09T12:09:39.491Z,2.20
2019-05-09T12:12:09.627Z,2.03
2019-05-09T12:14:39.762Z,3.23
2019-05-09T12:17:09.889Z,2.10
2019-05-09T12:19:40.080Z,3.97
2019-05-09T12:22:10.227Z,2.47
2019-05-09T12:24:40.380Z,2.50
2019-05-09T12:27:10.515Z,4.10
2019-05-09T12:29:40.659Z,1.60
2019-05-09T12:32:10.831Z,1.77
2019-05-09T12:34:40.966Z,1.40
2019-05-09T12:37:11.133Z,4.90
2019-05-09T12:39:41.316Z,1.73
2019-05-09T12:42:11.624Z,1.73
2019-05-09T12:44:41.821Z,5.30
2019-05-09T12:47:11.910Z,4.37
2019-05-09T12:49:42.074Z,25.70
2019-05-09T12:52:12.238Z,22.47
2019-05-09T12:54:42.384Z,26.67
2019-05-09T12:57:12.518Z,27.37
2019-05-09T12:59:48.983Z,36.13
2019-05-09T13:02:17.779Z,28.27
2019-05-09T13:04:48.046Z,27.50
2019-05-09T13:07:18.228Z,26.37
2019-05-09T13:09:52.609Z,27.13
2019-05-09T13:12:20.505Z,25.33
2019-05-09T13:14:50.648Z,33.93
2019-05-09T13:17:22.418Z,25.80
2019-05-09T13:19:52.554Z,23.13
2019-05-09T13:22:22.684Z,23.77
2019-05-09T13:24:52.892Z,25.70
2019-05-09T13:27:23.032Z,22.50
2019-05-09T13:29:53.202Z,28.23
2019-05-09T13:32:23.340Z,23.37
2019-05-09T13:34:53.495Z,21.07
2019-05-09T13:37:23.624Z,22.07
2019-05-09T13:39:53.764Z,23.20
2019-05-09T13:42:23.891Z,21.90
2019-05-09T13:44:54.041Z,19.43
2019-05-09T13:47:24.182Z,20.00
2019-05-09T13:49:56.079Z,21.17
2019-05-09T13:52:27.389Z,17.03
2019-05-09T13:54:58.912Z,19.53
2019-05-09T13:57:28.941Z,17.80
2019-05-09T13:59:59.742Z,16.33
2019-05-09T14:02:29.991Z,16.07
2019-05-09T14:05:00.157Z,14.00
2019-05-09T14:07:30.278Z,16.27
2019-05-09T14:10:00.447Z,16.53
2019-05-09T14:12:30.682Z,16.03
2019-05-09T14:15:00.896Z,11.67
2019-05-09T14:17:45.997Z,15.23
2019-05-09T14:20:08.911Z,14.37
2019-05-09T14:22:40.553Z,11.77
2019-05-09T14:25:11.970Z,12.43
2019-05-09T14:27:42.418Z,13.87
2019-05-09T14:30:13.808Z,13.50
2019-05-09T14:32:44.054Z,12.23
2019-05-09T14:35:14.849Z,13.27
2019-05-09T14:37:45.652Z,18.70
2019-05-09T14:40:17.612Z,13.37
2019-05-09T14:42:49.456Z,12.77
2019-05-09T14:45:19.785Z,10.47
2019-05-09T14:47:49.927Z,10.63
2019-05-09T14:50:20.083Z,14.43
2019-05-09T14:52:50.531Z,8.73
2019-05-09T14:55:20.759Z,11.07
2019-05-09T14:57:50.880Z,11.70
2019-05-09T15:00:21.099Z,12.10
2019-05-09T15:02:51.324Z,8.23
2019-05-09T15:05:21.535Z,7.97
2019-05-09T15:07:53.818Z,12.40
2019-05-09T15:10:23.726Z,10.47
2019-05-09T15:12:53.955Z,11.70
2019-05-09T15:15:24.145Z,10.37
2019-05-09T15:17:54.446Z,13.00
2019-05-09T15:20:24.754Z,9.70
2019-05-09T15:22:54.913Z,12.43
2019-05-09T15:25:25.108Z,11.27
2019-05-09T15:27:57.808Z,10.03
2019-05-09T15:30:28.696Z,7.37
2019-05-09T15:32:59.021Z,10.80
2019-05-09T15:35:29.166Z,6.30
2019-05-09T15:38:00.371Z,9.20
2019-05-09T15:40:30.518Z,9.13
2019-05-09T15:43:00.665Z,8.57
2019-05-09T15:45:33.429Z,8.23
2019-05-09T15:48:03.561Z,8.87
2019-05-09T15:50:33.702Z,8.23
2019-05-09T15:53:03.868Z,7.57
2019-05-09T15:55:33.998Z,11.13
2019-05-09T15:58:04.166Z,8.37
2019-05-09T16:00:34.280Z,9.50
2019-05-09T16:03:04.457Z,7.87
2019-05-09T16:05:38.557Z,9.53
2019-05-09T16:08:09.138Z,8.60
2019-05-09T16:10:39.903Z,6.43
2019-05-09T16:13:10.155Z,7.87
2019-05-09T16:15:40.289Z,6.60
2019-05-09T16:18:11.492Z,10.53
2019-05-09T16:20:41.814Z,7.50
2019-05-09T16:23:12.046Z,4.37
2019-05-09T16:25:42.198Z,6.97
2019-05-09T16:28:13.257Z,6.83
2019-05-09T16:30:43.382Z,5.17
2019-05-09T16:33:13.519Z,6.20
2019-05-09T16:35:43.636Z,7.07
2019-05-09T16:38:13.772Z,4.33
